createdAt,value
2022-11-01T00:01:53.748Z,96190.75
2022-11-01T00:04:20.685Z,96197.47
2022-11-01T00:06:48.414Z,96188.22
2022-11-01T00:09:15.082Z,96189.66
2022-11-01T00:11:41.936Z,96171.00
2022-11-01T00:14:12.195Z,96172.84
2022-11-01T00:16:38.799Z,96267.03
2022-11-01T00:19:05.350Z,96195.50
2022-11-01T00:21:31.923Z,96194.69
2022-11-01T00:23:58.469Z,96241.59
2022-11-01T00:26:25.121Z,96203.28
2022-11-01T00:28:52.220Z,96196.19
2022-11-01T00:31:19.881Z,96206.59
2022-11-01T00:33:46.757Z,96273.69
2022-11-01T00:36:14.357Z,96351.44
2022-11-01T00:38:41.282Z,96285.53
2022-11-01T00:41:08.017Z,96297.44
2022-11-01T00:43:36.136Z,96296.38
2022-11-01T00:46:04.191Z,96313.19
2022-11-01T00:48:30.882Z,96266.66
2022-11-01T00:50:57.751Z,96270.00
2022-11-01T00:53:24.309Z,96280.13
2022-11-01T00:55:50.890Z,96236.44
2022-11-01T00:58:17.547Z,96210.47
2022-11-01T01:00:44.185Z,96149.81
2022-11-01T01:03:10.857Z,96213.84
2022-11-01T01:05:37.690Z,96181.09
2022-11-01T01:08:04.402Z,96249.66
2022-11-01T01:10:30.973Z,96173.69
2022-11-01T01:12:57.772Z,96141.56
2022-11-01T01:15:24.413Z,96208.53
2022-11-01T01:17:51.028Z,96164.69
2022-11-01T01:20:17.621Z,96158.66
2022-11-01T01:22:44.159Z,96113.28
2022-11-01T01:25:10.907Z,96098.34
2022-11-01T01:27:38.077Z,96099.09
2022-11-01T01:30:06.032Z,96110.31
2022-11-01T01:32:32.609Z,96236.22
2022-11-01T01:34:59.276Z,96235.16
2022-11-01T01:37:25.856Z,96202.88
2022-11-01T01:39:52.618Z,96143.19
2022-11-01T01:42:34.695Z,96158.81
2022-11-01T01:45:25.817Z,96164.31
2022-11-01T01:47:54.448Z,96189.22
2022-11-01T01:50:26.851Z,96201.00
2022-11-01T01:53:08.229Z,96199.41
2022-11-01T01:55:48.610Z,96174.13
2022-11-01T01:58:18.081Z,96317.34
2022-11-01T02:00:45.014Z,96257.78
2022-11-01T02:03:12.885Z,96241.03
2022-11-01T02:05:58.065Z,96216.56
2022-11-01T02:08:28.009Z,96242.63
2022-11-01T02:11:01.272Z,96194.44
2022-11-01T02:13:29.049Z,96183.34
2022-11-01T02:16:17.289Z,96177.56
2022-11-01T02:18:48.304Z,96180.56
2022-11-01T02:21:33.555Z,96200.78
2022-11-01T02:24:17.962Z,96178.25
2022-11-01T02:26:44.494Z,96083.56
2022-11-01T02:29:20.330Z,96101.78
2022-11-01T02:32:14.510Z,96112.63
2022-11-01T02:34:49.884Z,96127.75
2022-11-01T02:37:32.678Z,96163.25
2022-11-01T02:40:05.828Z,96208.91
2022-11-01T02:42:37.405Z,96125.50
2022-11-01T02:45:35.597Z,96262.22
2022-11-01T02:48:03.666Z,96197.81
2022-11-01T02:50:37.159Z,96207.16
2022-11-01T02:53:05.059Z,96246.81
2022-11-01T02:55:31.902Z,96153.38
2022-11-01T02:58:23.441Z,96175.78
2022-11-01T03:00:50.548Z,96153.28
2022-11-01T03:03:22.604Z,96189.78
2022-11-01T03:06:02.834Z,96248.72
2022-11-01T03:08:35.556Z,96168.31
2022-11-01T03:11:07.525Z,96245.88
2022-11-01T03:13:43.853Z,96266.13
2022-11-01T03:16:26.944Z,96257.13
2022-11-01T03:19:06.603Z,96206.63
2022-11-01T03:21:41.284Z,96154.97
2022-11-01T03:24:18.344Z,96178.50
2022-11-01T03:26:48.273Z,96203.00
2022-11-01T03:29:19.035Z,96216.47
2022-11-01T03:31:46.557Z,96230.53
2022-11-01T03:34:16.536Z,96225.31
2022-11-01T03:36:51.008Z,96195.06
2022-11-01T03:39:48.767Z,96187.75
2022-11-01T03:42:19.331Z,96171.69
2022-11-01T03:44:50.321Z,96206.03
2022-11-01T03:47:17.136Z,96196.31
2022-11-01T03:49:43.692Z,96187.28
2022-11-01T03:52:10.363Z,96184.22
2022-11-01T03:54:36.935Z,96196.16
2022-11-01T03:57:03.627Z,96211.59
2022-11-01T03:59:30.269Z,96195.22
2022-11-01T04:01:57.123Z,96177.63
2022-11-01T04:04:23.792Z,96179.97
2022-11-01T04:06:51.324Z,96152.44
2022-11-01T04:09:17.917Z,96155.47
2022-11-01T04:11:44.482Z,96139.50
2022-11-01T04:14:31.342Z,96166.03
2022-11-01T04:17:16.313Z,96172.88
2022-11-01T04:20:01.492Z,96184.19
2022-11-01T04:22:28.099Z,96183.44
2022-11-01T04:24:54.645Z,96185.97
2022-11-01T04:27:21.203Z,96173.22
2022-11-01T04:29:47.739Z,96178.53
2022-11-01T04:32:14.303Z,96197.69
2022-11-01T04:34:43.745Z,96192.03
2022-11-01T04:37:14.236Z,96180.44
2022-11-01T04:39:40.932Z,96175.59
2022-11-01T04:42:07.505Z,96166.19
2022-11-01T04:44:34.081Z,96181.78
2022-11-01T04:47:00.674Z,96187.78
2022-11-01T04:49:27.231Z,96174.19
2022-11-01T04:51:53.755Z,96193.78
2022-11-01T04:54:20.391Z,96190.84
2022-11-01T04:56:47.025Z,96181.06
2022-11-01T04:59:13.582Z,96192.34
2022-11-01T05:01:40.215Z,96192.66
2022-11-01T05:04:06.869Z,96197.09
2022-11-01T05:06:33.448Z,96190.75
2022-11-01T05:09:00.008Z,96188.09
2022-11-01T05:11:26.602Z,96187.34
2022-11-01T05:13:53.203Z,96200.47
2022-11-01T05:16:20.968Z,96190.06
2022-11-01T05:18:48.421Z,96190.13
2022-11-01T05:21:15.070Z,96186.72
2022-11-01T05:23:41.641Z,96194.53
2022-11-01T05:26:08.210Z,96178.09
2022-11-01T05:28:34.905Z,96194.81
2022-11-01T05:31:01.657Z,96195.25
2022-11-01T05:33:28.258Z,96193.47
2022-11-01T05:35:54.853Z,96192.34
2022-11-01T05:38:21.420Z,96175.91
2022-11-01T05:40:48.270Z,96197.16
2022-11-01T05:43:15.391Z,96260.94
2022-11-01T05:45:42.103Z,96234.78
2022-11-01T05:48:09.344Z,96194.06
2022-11-01T05:50:35.950Z,96187.69
2022-11-01T05:53:07.005Z,96177.97
2022-11-01T05:55:34.441Z,96193.63
2022-11-01T05:58:01.256Z,96189.09
2022-11-01T06:00:27.909Z,96184.22
2022-11-01T06:02:57.672Z,96188.69
2022-11-01T06:05:24.537Z,96183.03
2022-11-01T06:07:51.099Z,96183.44
2022-11-01T06:10:17.859Z,96183.78
2022-11-01T06:12:44.483Z,96189.44
2022-11-01T06:15:11.651Z,96175.09
2022-11-01T06:17:38.239Z,96177.28
2022-11-01T06:20:05.845Z,96173.50
2022-11-01T06:22:35.785Z,96178.47
2022-11-01T06:25:02.389Z,96179.88
2022-11-01T06:27:29.159Z,96190.72
2022-11-01T06:29:55.698Z,96189.28
2022-11-01T06:32:22.335Z,96191.13
2022-11-01T06:34:48.943Z,96192.34
2022-11-01T06:37:15.794Z,96213.16
2022-11-01T06:39:42.442Z,96219.16
2022-11-01T06:42:09.827Z,96207.63
2022-11-01T06:44:36.401Z,96245.00
2022-11-01T06:47:03.055Z,96292.50
2022-11-01T06:49:30.563Z,96294.31
2022-11-01T06:51:57.548Z,96252.91
2022-11-01T06:54:24.312Z,96245.91
2022-11-01T06:56:50.869Z,96243.69
2022-11-01T06:59:17.420Z,96244.19
2022-11-01T07:01:44.511Z,96250.59
2022-11-01T07:06:57.753Z,96276.00
2022-11-01T07:09:24.389Z,96283.88
2022-11-01T07:11:50.940Z,96288.69
2022-11-01T07:14:17.575Z,96287.25
2022-11-01T07:16:44.250Z,96289.50
2022-11-01T07:19:10.912Z,96306.25
2022-11-01T07:21:37.782Z,96308.44
2022-11-01T07:24:04.727Z,96311.88
2022-11-01T07:26:31.393Z,96312.97
2022-11-01T07:28:57.983Z,96320.47
2022-11-01T07:31:25.519Z,96328.34
2022-11-01T07:33:52.116Z,96335.06
2022-11-01T07:36:18.903Z,96330.59
2022-11-01T07:38:45.558Z,96335.84
2022-11-01T07:41:12.296Z,96325.03
2022-11-01T07:43:38.825Z,96334.41
2022-11-01T07:46:07.229Z,96348.94
2022-11-01T07:48:36.851Z,96374.34
2022-11-01T07:51:05.841Z,96367.72
2022-11-01T07:53:32.505Z,96372.59
2022-11-01T07:56:01.551Z,96413.13
2022-11-01T07:58:28.235Z,96531.19
2022-11-01T08:00:54.907Z,96632.25
2022-11-01T08:03:21.560Z,96706.63
2022-11-01T08:05:48.685Z,96774.78
2022-11-01T08:08:16.616Z,96797.09
2022-11-01T08:10:43.384Z,96860.53
2022-11-01T08:13:23.698Z,96922.75
2022-11-01T08:15:52.226Z,96968.03
2022-11-01T08:18:22.454Z,96999.88
2022-11-01T08:20:49.321Z,97091.72
2022-11-01T08:23:15.965Z,97166.69
2022-11-01T08:25:42.667Z,97162.69
2022-11-01T08:28:12.972Z,97238.84
2022-11-01T08:30:41.970Z,97286.44
2022-11-01T08:33:08.994Z,97288.22
2022-11-01T08:35:35.598Z,97291.19
2022-11-01T08:38:05.412Z,97290.84
2022-11-01T08:40:33.209Z,97258.31
2022-11-01T08:43:00.083Z,97287.03
2022-11-01T08:45:27.422Z,97308.31
2022-11-01T08:47:59.410Z,97354.06
2022-11-01T08:50:27.327Z,97353.38
2022-11-01T08:52:53.903Z,97317.72
2022-11-01T08:55:21.584Z,97400.66
2022-11-01T08:57:48.510Z,97436.50
2022-11-01T09:00:16.809Z,97507.38
2022-11-01T09:02:43.609Z,97580.38
2022-11-01T09:05:10.350Z,97535.34
2022-11-01T09:07:37.933Z,97580.28
2022-11-01T09:10:05.368Z,97702.34
2022-11-01T09:12:32.328Z,97779.38
2022-11-01T09:14:59.245Z,97807.69
2022-11-01T09:17:25.833Z,97818.47
2022-11-01T09:19:52.506Z,97815.31
2022-11-01T09:22:19.090Z,97799.38
2022-11-01T09:24:45.788Z,97783.03
2022-11-01T09:27:12.442Z,97765.06
2022-11-01T09:29:39.149Z,97765.69
2022-11-01T09:32:06.872Z,97802.91
2022-11-01T09:34:34.050Z,97814.19
2022-11-01T09:37:01.027Z,97816.13
2022-11-01T09:39:27.684Z,97815.56
2022-11-01T09:42:02.454Z,97853.59
2022-11-01T09:44:34.519Z,97867.25
2022-11-01T09:47:05.611Z,97837.69
2022-11-01T09:49:36.636Z,97907.88
2022-11-01T09:52:05.380Z,97917.28
2022-11-01T09:54:33.010Z,97898.97
2022-11-01T09:57:28.087Z,97917.50
2022-11-01T10:00:20.190Z,97917.41
2022-11-01T10:02:56.768Z,97929.53
2022-11-01T10:05:44.246Z,97873.25
2022-11-01T10:08:38.219Z,97959.38
2022-11-01T10:11:16.982Z,97967.25
2022-11-01T10:14:07.943Z,97974.44
2022-11-01T10:16:37.315Z,97964.81
2022-11-01T10:19:14.755Z,97967.16
2022-11-01T10:21:54.455Z,97909.19
2022-11-01T10:24:29.900Z,97970.91
2022-11-01T10:27:05.751Z,98006.94
2022-11-01T10:29:41.636Z,98037.88
2022-11-01T10:32:20.992Z,98049.78
2022-11-01T10:34:47.791Z,98110.72
2022-11-01T10:37:23.641Z,98128.50
2022-11-01T10:39:59.136Z,98121.38
2022-11-01T10:42:30.027Z,98130.28
2022-11-01T10:45:04.636Z,98108.09
2022-11-01T10:47:31.249Z,98121.91
2022-11-01T10:50:09.092Z,98113.78
2022-11-01T10:52:47.780Z,98121.13
2022-11-01T10:55:20.192Z,98098.31
2022-11-01T10:58:10.596Z,98117.78
2022-11-01T11:00:40.679Z,98104.38
2022-11-01T11:03:29.008Z,98034.06
2022-11-01T11:05:59.401Z,98069.13
2022-11-01T11:08:26.640Z,98078.09
2022-11-01T11:11:03.174Z,98067.16
2022-11-01T11:13:31.133Z,98042.53
2022-11-01T11:16:06.543Z,98069.97
2022-11-01T11:18:42.161Z,98061.75
2022-11-01T11:21:11.876Z,98056.63
2022-11-01T11:23:43.673Z,98022.13
2022-11-01T11:26:13.586Z,98084.75
2022-11-01T11:28:46.178Z,98116.50
2022-11-01T11:31:34.293Z,98083.97
2022-11-01T11:34:26.101Z,98099.50
2022-11-01T11:36:55.057Z,98146.81
2022-11-01T11:39:27.511Z,98137.47
2022-11-01T11:41:54.396Z,98138.81
2022-11-01T11:44:55.456Z,98127.38
2022-11-01T11:47:28.334Z,98161.44
2022-11-01T11:49:58.122Z,98151.00
2022-11-01T11:52:37.801Z,98158.06
2022-11-01T11:55:05.946Z,98166.47
2022-11-01T11:57:33.466Z,98177.94
2022-11-01T12:00:05.670Z,98171.63
2022-11-01T12:02:40.905Z,98149.63
2022-11-01T12:05:15.073Z,98158.53
2022-11-01T12:07:52.922Z,98175.00
2022-11-01T12:10:38.220Z,98180.63
2022-11-01T12:13:21.191Z,98186.31
2022-11-01T12:15:48.014Z,98188.97
2022-11-01T12:18:19.254Z,98202.81
2022-11-01T12:20:51.324Z,98214.63
2022-11-01T12:23:37.811Z,98210.25
2022-11-01T12:26:12.541Z,98220.03
2022-11-01T12:28:47.412Z,98215.16
2022-11-01T12:31:19.465Z,98215.66
2022-11-01T12:33:52.447Z,98214.06
2022-11-01T12:36:27.869Z,98200.53
2022-11-01T12:39:06.917Z,98229.16
2022-11-01T12:41:42.657Z,98220.25
2022-11-01T12:44:24.709Z,98224.47
2022-11-01T12:47:14.693Z,98214.91
2022-11-01T12:49:51.124Z,98216.44
2022-11-01T12:52:21.270Z,98216.34
2022-11-01T12:55:00.782Z,98219.41
2022-11-01T12:57:28.185Z,98221.25
2022-11-01T12:59:54.767Z,98219.75
2022-11-01T13:02:21.344Z,98231.16
2022-11-01T13:05:01.308Z,98225.44
2022-11-01T13:07:47.518Z,98224.59
2022-11-01T13:10:34.141Z,98224.44
2022-11-01T13:13:27.045Z,98216.31
2022-11-01T13:16:07.879Z,98208.13
2022-11-01T13:18:53.074Z,98205.28
2022-11-01T13:21:40.909Z,98204.50
2022-11-01T13:24:19.515Z,98189.22
2022-11-01T13:26:54.783Z,98189.97
2022-11-01T13:29:41.146Z,98180.38
2022-11-01T13:32:46.021Z,98155.81
2022-11-01T13:35:42.991Z,98163.25
2022-11-01T13:38:17.586Z,98166.00
2022-11-01T13:41:05.364Z,98167.03
2022-11-01T13:43:43.084Z,98165.94
2022-11-01T13:46:24.906Z,98166.56
2022-11-01T13:49:09.549Z,98155.34
2022-11-01T13:52:03.173Z,98180.28
2022-11-01T13:54:36.926Z,98177.09
2022-11-01T13:57:06.604Z,98163.84
2022-11-01T13:59:54.046Z,98152.00
2022-11-01T14:02:24.068Z,98184.59
2022-11-01T14:04:57.726Z,98190.56
2022-11-01T14:07:25.723Z,98179.44
2022-11-01T14:09:56.084Z,98190.72
2022-11-01T14:12:54.888Z,98203.81
2022-11-01T14:15:22.949Z,98196.06
2022-11-01T14:17:52.766Z,98190.41
2022-11-01T14:20:19.407Z,98192.13
2022-11-01T14:22:46.505Z,98186.56
2022-11-01T14:25:13.513Z,98186.38
2022-11-01T14:27:48.817Z,98185.00
2022-11-01T14:30:21.519Z,98184.91
2022-11-01T14:32:53.906Z,98193.72
2022-11-01T14:35:30.606Z,98196.19
2022-11-01T14:38:20.267Z,98191.94
2022-11-01T14:40:52.230Z,98200.78
2022-11-01T14:43:45.651Z,98193.97
2022-11-01T14:46:15.909Z,98201.88
2022-11-01T14:48:55.551Z,98200.91
2022-11-01T14:51:46.580Z,98205.03
2022-11-01T14:54:21.071Z,98208.06
2022-11-01T14:56:55.827Z,98206.44
2022-11-01T14:59:25.032Z,98209.38
2022-11-01T15:02:01.155Z,98208.81
2022-11-01T15:04:39.867Z,98208.13
2022-11-01T15:07:40.528Z,98200.63
2022-11-01T15:10:13.487Z,98178.41
2022-11-01T15:12:53.364Z,98182.50
2022-11-01T15:15:36.367Z,98170.44
2022-11-01T15:18:07.489Z,98182.84
2022-11-01T15:20:40.470Z,98175.47
2022-11-01T15:23:10.824Z,98155.72
2022-11-01T15:25:37.644Z,98155.41
2022-11-01T15:28:05.295Z,98131.25
2022-11-01T15:30:34.157Z,98142.69
2022-11-01T15:33:25.958Z,98126.94
2022-11-01T15:35:54.777Z,98123.78
2022-11-01T15:38:22.127Z,98113.22
2022-11-01T15:40:54.177Z,98103.25
2022-11-01T15:43:23.100Z,98111.44
2022-11-01T15:46:01.446Z,98103.59
2022-11-01T15:48:33.608Z,98100.53
2022-11-01T15:51:03.227Z,98088.00
2022-11-01T15:53:33.693Z,98078.50
2022-11-01T15:56:09.907Z,98052.00
2022-11-01T15:58:41.646Z,98049.88
2022-11-01T16:01:13.764Z,98080.22
2022-11-01T16:03:45.821Z,98081.00
2022-11-01T16:06:39.178Z,98077.31
2022-11-01T16:09:15.509Z,98079.03
2022-11-01T16:11:42.154Z,98043.16
2022-11-01T16:14:33.558Z,98048.44
2022-11-01T16:17:06.832Z,98041.38
2022-11-01T16:19:48.287Z,98012.97
2022-11-01T16:22:26.912Z,98020.19
2022-11-01T16:25:11.668Z,98013.13
2022-11-01T16:27:57.278Z,97990.84
2022-11-01T16:30:54.799Z,98002.97
2022-11-01T16:33:24.110Z,97990.97
2022-11-01T16:35:59.067Z,97963.78
2022-11-01T16:38:38.393Z,97965.38
2022-11-01T16:41:23.199Z,97966.88
2022-11-01T16:43:55.408Z,97958.91
2022-11-01T16:46:24.325Z,97966.91
2022-11-01T16:48:53.376Z,97941.88
2022-11-01T16:51:21.390Z,97949.84
2022-11-01T16:53:47.956Z,97940.66
2022-11-01T16:56:35.724Z,97944.47
2022-11-01T16:59:07.565Z,97950.31
2022-11-01T17:01:36.532Z,97934.34
2022-11-01T17:04:04.437Z,97930.97
2022-11-01T17:06:34.760Z,97941.69
2022-11-01T17:09:11.869Z,97927.28
2022-11-01T17:11:38.558Z,97923.91
2022-11-01T17:14:05.065Z,97935.41
2022-11-01T17:16:31.936Z,97914.22
2022-11-01T17:19:00.754Z,97899.50
2022-11-01T17:21:30.906Z,97879.50
2022-11-01T17:23:57.778Z,97886.13
2022-11-01T17:26:24.434Z,97875.38
2022-11-01T17:28:52.467Z,97881.03
2022-11-01T17:31:19.268Z,97861.88
2022-11-01T17:33:46.476Z,97875.06
2022-11-01T17:36:15.417Z,97857.56
2022-11-01T17:38:43.024Z,97838.53
2022-11-01T17:41:12.663Z,97853.44
2022-11-01T17:43:39.515Z,97834.25
2022-11-01T17:46:13.873Z,97824.56
2022-11-01T17:48:40.463Z,97826.22
2022-11-01T17:51:07.035Z,97820.72
2022-11-01T17:53:34.786Z,97850.34
2022-11-01T17:56:01.352Z,97849.72
2022-11-01T17:58:27.991Z,97837.91
2022-11-01T18:00:54.573Z,97852.31
2022-11-01T18:03:21.259Z,97852.94
2022-11-01T18:05:47.837Z,97851.25
2022-11-01T18:08:20.600Z,97854.50
2022-11-01T18:11:13.504Z,97851.28
2022-11-01T18:14:06.227Z,97823.22
2022-11-01T18:16:50.797Z,97806.44
2022-11-01T18:19:45.289Z,97806.16
2022-11-01T18:22:34.141Z,97809.06
2022-11-01T18:25:29.571Z,97817.19
2022-11-01T18:28:00.660Z,97805.66
2022-11-01T18:30:27.673Z,97798.72
2022-11-01T18:33:04.945Z,97780.50
2022-11-01T18:35:36.010Z,97758.88
2022-11-01T18:38:18.732Z,97772.50
2022-11-01T18:40:55.617Z,97770.03
2022-11-01T18:43:22.334Z,97735.09
2022-11-01T18:46:11.542Z,97720.47
2022-11-01T18:48:37.577Z,97731.06
2022-11-01T18:51:14.812Z,97712.81
2022-11-01T18:53:41.367Z,97728.63
2022-11-01T18:56:21.463Z,97717.75
2022-11-01T18:58:52.689Z,97693.66
2022-11-01T19:01:32.090Z,97698.72
2022-11-01T19:04:04.859Z,97684.41
2022-11-01T19:06:32.653Z,97682.00
2022-11-01T19:09:09.625Z,97698.22
2022-11-01T19:11:36.308Z,97706.06
2022-11-01T19:14:03.192Z,97679.50
2022-11-01T19:16:29.791Z,97658.38
2022-11-01T19:18:56.404Z,97685.97
2022-11-01T19:21:25.200Z,97690.28
2022-11-01T19:23:54.292Z,97664.03
2022-11-01T19:26:26.039Z,97667.41
2022-11-01T19:28:52.860Z,97660.50
2022-11-01T19:31:30.974Z,97650.19
2022-11-01T19:34:02.378Z,97635.53
2022-11-01T19:39:22.210Z,97618.34
2022-11-01T19:41:49.273Z,97633.06
2022-11-01T19:44:22.044Z,97636.41
2022-11-01T19:46:49.056Z,97617.44
2022-11-01T19:49:24.481Z,97623.09
2022-11-01T19:52:23.147Z,97612.53
2022-11-01T19:54:51.935Z,97621.09
2022-11-01T19:57:32.538Z,97596.69
2022-11-01T20:00:11.487Z,97589.78
2022-11-01T20:02:38.641Z,97575.03
2022-11-01T20:05:27.565Z,97571.84
2022-11-01T20:08:21.925Z,97566.03
2022-11-01T20:10:49.387Z,97568.00
2022-11-01T20:13:16.914Z,97549.53
2022-11-01T20:15:44.585Z,97560.97
2022-11-01T20:18:12.194Z,97558.81
2022-11-01T20:20:44.253Z,97555.31
2022-11-01T20:23:25.819Z,97553.34
2022-11-01T20:25:54.335Z,97552.94
2022-11-01T20:28:21.904Z,97544.59
2022-11-01T20:30:49.559Z,97555.94
2022-11-01T20:33:17.293Z,97545.06
2022-11-01T20:35:44.759Z,97551.00
2022-11-01T20:38:12.485Z,97542.56
2022-11-01T20:40:39.676Z,97536.97
2022-11-01T20:43:07.320Z,97544.25
2022-11-01T20:45:35.197Z,97535.97
2022-11-01T20:48:02.925Z,97530.16
2022-11-01T20:50:30.194Z,97526.78
2022-11-01T20:52:56.829Z,97532.56
2022-11-01T20:55:23.820Z,97526.56
2022-11-01T20:57:51.467Z,97508.78
2022-11-01T21:00:21.010Z,97519.38
2022-11-01T21:02:48.451Z,97507.56
2022-11-01T21:05:26.684Z,97491.00
2022-11-01T21:07:58.325Z,97501.59
2022-11-01T21:10:27.302Z,97479.94
2022-11-01T21:12:54.000Z,97467.09
2022-11-01T21:15:38.355Z,97465.63
2022-11-01T21:18:07.950Z,97472.25
2022-11-01T21:20:48.463Z,97458.53
2022-11-01T21:23:20.758Z,97462.03
2022-11-01T21:25:52.324Z,97468.16
2022-11-01T21:28:42.509Z,97480.56
2022-11-01T21:31:15.073Z,97464.78
2022-11-01T21:33:53.494Z,97464.78
2022-11-01T21:36:20.032Z,97456.78
2022-11-01T21:39:14.219Z,97441.75
2022-11-01T21:41:46.357Z,97448.25
2022-11-01T21:44:21.002Z,97436.59
2022-11-01T21:46:58.175Z,97437.88
2022-11-01T21:49:26.247Z,97428.13
2022-11-01T21:51:54.782Z,97445.22
2022-11-01T21:54:21.825Z,97450.00
2022-11-01T21:56:48.668Z,97442.50
2022-11-01T21:59:15.432Z,97451.03
2022-11-01T22:01:45.992Z,97430.53
2022-11-01T22:04:13.972Z,97430.72
2022-11-01T22:06:41.295Z,97426.06
2022-11-01T22:09:09.085Z,97413.75
2022-11-01T22:11:36.397Z,97442.94
2022-11-01T22:14:03.834Z,97428.69
2022-11-01T22:16:30.608Z,97432.88
2022-11-01T22:18:57.170Z,97433.44
2022-11-01T22:21:23.913Z,97458.47
2022-11-01T22:23:50.467Z,97475.56
2022-11-01T22:26:17.159Z,97462.09
2022-11-01T22:28:43.913Z,97460.53
2022-11-01T22:31:10.549Z,97445.34
2022-11-01T22:33:37.129Z,97432.81
2022-11-01T22:36:04.862Z,97406.03
2022-11-01T22:38:43.016Z,97411.38
2022-11-01T22:41:27.127Z,97395.59
2022-11-01T22:43:59.382Z,97395.94
2022-11-01T22:46:32.661Z,97398.22
2022-11-01T22:49:18.291Z,97384.88
2022-11-01T22:51:47.778Z,97386.16
2022-11-01T22:54:30.397Z,97374.13
2022-11-01T22:57:01.632Z,97346.44
2022-11-01T22:59:33.216Z,97353.72
2022-11-01T23:02:24.901Z,97348.09
2022-11-01T23:05:07.139Z,97334.31
2022-11-01T23:07:34.682Z,97328.94
2022-11-01T23:10:07.829Z,97321.16
2022-11-01T23:12:55.147Z,97325.75
2022-11-01T23:15:28.848Z,97324.94
2022-11-01T23:18:27.459Z,97313.41
2022-11-01T23:21:01.996Z,97319.53
2022-11-01T23:23:28.914Z,97321.63
2022-11-01T23:25:57.121Z,97331.72
2022-11-01T23:28:24.545Z,97331.34
2022-11-01T23:30:51.805Z,97319.81
2022-11-01T23:33:20.643Z,97315.28
2022-11-01T23:35:58.281Z,97305.25
2022-11-01T23:38:55.514Z,97313.06
2022-11-01T23:41:34.785Z,97332.34
2022-11-01T23:44:21.127Z,97322.97
2022-11-01T23:46:47.938Z,97321.56
2022-11-01T23:49:23.747Z,97347.22
2022-11-01T23:51:51.040Z,97336.25
2022-11-01T23:54:26.513Z,97327.03
2022-11-01T23:56:55.118Z,97325.94
2022-11-01T23:59:21.682Z,97335.56
